sensor_id;sensor_type;location;lat;lon;timestamp;temperature;humidity
15394;DHT22;7795;47.986;11.868;2023-06-01T00:02:06;17.80;60.70
15394;DHT22;7795;47.986;11.868;2023-06-01T00:04:33;17.80;60.70
15394;DHT22;7795;47.986;11.868;2023-06-01T00:07:01;17.70;60.70
15394;DHT22;7795;47.986;11.868;2023-06-01T00:09:28;17.70;60.50
15394;DHT22;7795;47.986;11.868;2023-06-01T00:11:53;17.70;60.80
15394;DHT22;7795;47.986;11.868;2023-06-01T00:14:19;17.70;61.00
15394;DHT22;7795;47.986;11.868;2023-06-01T00:16:45;17.60;61.00
15394;DHT22;7795;47.986;11.868;2023-06-01T00:19:11;17.60;61.00
15394;DHT22;7795;47.986;11.868;2023-06-01T00:21:39;17.50;61.00
15394;DHT22;7795;47.986;11.868;2023-06-01T00:24:28;17.50;61.30
15394;DHT22;7795;47.986;11.868;2023-06-01T00:26:54;17.50;61.20
15394;DHT22;7795;47.986;11.868;2023-06-01T00:29:20;17.40;62.00
15394;DHT22;7795;47.986;11.868;2023-06-01T00:32:10;17.40;61.30
15394;DHT22;7795;47.986;11.868;2023-06-01T00:34:36;17.30;61.20
15394;DHT22;7795;47.986;11.868;2023-06-01T00:37:03;17.20;61.40
15394;DHT22;7795;47.986;11.868;2023-06-01T00:39:29;17.20;61.50
15394;DHT22;7795;47.986;11.868;2023-06-01T00:41:55;17.10;61.50
15394;DHT22;7795;47.986;11.868;2023-06-01T00:44:21;17.10;61.70
15394;DHT22;7795;47.986;11.868;2023-06-01T00:46:50;17.00;61.90
15394;DHT22;7795;47.986;11.868;2023-06-01T00:49:17;17.00;62.40
15394;DHT22;7795;47.986;11.868;2023-06-01T00:51:43;16.90;62.30
15394;DHT22;7795;47.986;11.868;2023-06-01T00:54:10;16.90;62.50
15394;DHT22;7795;47.986;11.868;2023-06-01T00:56:37;16.90;62.80
15394;DHT22;7795;47.986;11.868;2023-06-01T00:59:03;16.80;62.70
15394;DHT22;7795;47.986;11.868;2023-06-01T01:01:29;16.80;62.80
15394;DHT22;7795;47.986;11.868;2023-06-01T01:03:55;16.80;63.00
15394;DHT22;7795;47.986;11.868;2023-06-01T01:06:34;16.70;63.80
15394;DHT22;7795;47.986;11.868;2023-06-01T01:09:13;16.70;63.60
15394;DHT22;7795;47.986;11.868;2023-06-01T01:12:00;16.70;63.80
15394;DHT22;7795;47.986;11.868;2023-06-01T01:14:52;16.60;63.50
15394;DHT22;7795;47.986;11.868;2023-06-01T01:17:28;16.60;63.80
15394;DHT22;7795;47.986;11.868;2023-06-01T01:20:02;16.60;63.80
15394;DHT22;7795;47.986;11.868;2023-06-01T01:23:10;16.50;63.50
15394;DHT22;7795;47.986;11.868;2023-06-01T01:26:14;16.50;64.40
15394;DHT22;7795;47.986;11.868;2023-06-01T01:29:14;16.50;64.40
15394;DHT22;7795;47.986;11.868;2023-06-01T01:31:40;16.50;63.80
15394;DHT22;7795;47.986;11.868;2023-06-01T01:34:08;16.40;63.70
15394;DHT22;7795;47.986;11.868;2023-06-01T01:36:34;16.40;64.00
15394;DHT22;7795;47.986;11.868;2023-06-01T01:39:01;16.40;64.10
15394;DHT22;7795;47.986;11.868;2023-06-01T01:41:28;16.40;64.10
15394;DHT22;7795;47.986;11.868;2023-06-01T01:43:55;16.40;64.30
15394;DHT22;7795;47.986;11.868;2023-06-01T01:46:38;16.40;64.40
15394;DHT22;7795;47.986;11.868;2023-06-01T01:49:25;16.40;64.80
15394;DHT22;7795;47.986;11.868;2023-06-01T01:51:56;16.40;64.70
15394;DHT22;7795;47.986;11.868;2023-06-01T01:54:24;16.40;64.70
15394;DHT22;7795;47.986;11.868;2023-06-01T01:56:54;16.30;64.60
15394;DHT22;7795;47.986;11.868;2023-06-01T01:59:23;16.30;64.60
15394;DHT22;7795;47.986;11.868;2023-06-01T02:01:51;16.30;64.30
15394;DHT22;7795;47.986;11.868;2023-06-01T02:04:17;16.20;64.30
15394;DHT22;7795;47.986;11.868;2023-06-01T02:06:43;16.20;64.30
15394;DHT22;7795;47.986;11.868;2023-06-01T02:09:09;16.20;64.30
15394;DHT22;7795;47.986;11.868;2023-06-01T02:11:35;16.10;64.40
15394;DHT22;7795;47.986;11.868;2023-06-01T02:14:01;16.10;64.60
15394;DHT22;7795;47.986;11.868;2023-06-01T02:16:27;16.00;64.50
15394;DHT22;7795;47.986;11.868;2023-06-01T02:18:54;16.00;64.60
15394;DHT22;7795;47.986;11.868;2023-06-01T02:21:23;16.00;64.70
15394;DHT22;7795;47.986;11.868;2023-06-01T02:23:49;15.90;64.70
15394;DHT22;7795;47.986;11.868;2023-06-01T02:26:15;15.90;65.00
15394;DHT22;7795;47.986;11.868;2023-06-01T02:28:42;15.80;65.10
15394;DHT22;7795;47.986;11.868;2023-06-01T02:31:08;15.80;66.10
15394;DHT22;7795;47.986;11.868;2023-06-01T02:33:35;15.80;65.50
15394;DHT22;7795;47.986;11.868;2023-06-01T02:36:02;15.80;65.60
15394;DHT22;7795;47.986;11.868;2023-06-01T02:38:28;15.70;65.80
15394;DHT22;7795;47.986;11.868;2023-06-01T02:40:54;15.70;65.80
15394;DHT22;7795;47.986;11.868;2023-06-01T02:43:20;15.60;66.00
15394;DHT22;7795;47.986;11.868;2023-06-01T02:45:46;15.60;66.10
15394;DHT22;7795;47.986;11.868;2023-06-01T02:48:11;15.60;66.20
15394;DHT22;7795;47.986;11.868;2023-06-01T02:50:38;15.50;66.10
15394;DHT22;7795;47.986;11.868;2023-06-01T02:53:05;15.50;66.20
15394;DHT22;7795;47.986;11.868;2023-06-01T02:55:32;15.50;66.50
15394;DHT22;7795;47.986;11.868;2023-06-01T02:57:58;15.50;66.40
15394;DHT22;7795;47.986;11.868;2023-06-01T03:00:24;15.40;66.40
15394;DHT22;7795;47.986;11.868;2023-06-01T03:02:50;15.40;66.50
15394;DHT22;7795;47.986;11.868;2023-06-01T03:05:18;15.40;66.60
15394;DHT22;7795;47.986;11.868;2023-06-01T03:07:47;15.40;66.60
15394;DHT22;7795;47.986;11.868;2023-06-01T03:10:14;15.40;66.70
15394;DHT22;7795;47.986;11.868;2023-06-01T03:12:40;15.40;66.90
15394;DHT22;7795;47.986;11.868;2023-06-01T03:15:06;15.40;66.80
15394;DHT22;7795;47.986;11.868;2023-06-01T03:17:32;15.30;67.00
15394;DHT22;7795;47.986;11.868;2023-06-01T03:19:59;15.30;67.00
15394;DHT22;7795;47.986;11.868;2023-06-01T03:22:25;15.30;67.20
15394;DHT22;7795;47.986;11.868;2023-06-01T03:24:51;15.30;67.20
15394;DHT22;7795;47.986;11.868;2023-06-01T03:27:31;15.30;67.40
15394;DHT22;7795;47.986;11.868;2023-06-01T03:30:24;15.20;67.50
15394;DHT22;7795;47.986;11.868;2023-06-01T03:32:49;15.20;67.30
15394;DHT22;7795;47.986;11.868;2023-06-01T03:35:15;15.20;67.40
15394;DHT22;7795;47.986;11.868;2023-06-01T03:37:43;15.20;67.40
15394;DHT22;7795;47.986;11.868;2023-06-01T03:40:09;15.10;67.60
15394;DHT22;7795;47.986;11.868;2023-06-01T03:42:41;15.10;67.60
15394;DHT22;7795;47.986;11.868;2023-06-01T03:45:08;15.10;67.90
15394;DHT22;7795;47.986;11.868;2023-06-01T03:47:34;15.10;67.80
15394;DHT22;7795;47.986;11.868;2023-06-01T03:50:00;15.10;67.80
15394;DHT22;7795;47.986;11.868;2023-06-01T03:52:26;15.10;67.90
15394;DHT22;7795;47.986;11.868;2023-06-01T03:55:09;15.00;67.90
15394;DHT22;7795;47.986;11.868;2023-06-01T03:57:36;15.00;67.90
15394;DHT22;7795;47.986;11.868;2023-06-01T04:00:04;15.00;68.10
15394;DHT22;7795;47.986;11.868;2023-06-01T04:02:48;15.00;68.40
15394;DHT22;7795;47.986;11.868;2023-06-01T04:05:17;15.00;68.20
15394;DHT22;7795;47.986;11.868;2023-06-01T04:07:44;15.00;68.30
15394;DHT22;7795;47.986;11.868;2023-06-01T04:10:11;15.00;68.40
15394;DHT22;7795;47.986;11.868;2023-06-01T04:12:39;15.00;68.50
15394;DHT22;7795;47.986;11.868;2023-06-01T04:18:07;15.10;69.00
15394;DHT22;7795;47.986;11.868;2023-06-01T04:20:33;15.10;68.50
15394;DHT22;7795;47.986;11.868;2023-06-01T04:23:00;15.10;68.70
15394;DHT22;7795;47.986;11.868;2023-06-01T04:25:26;15.10;68.80
15394;DHT22;7795;47.986;11.868;2023-06-01T04:27:54;15.10;68.90
15394;DHT22;7795;47.986;11.868;2023-06-01T04:30:27;15.20;69.20
15394;DHT22;7795;47.986;11.868;2023-06-01T04:32:52;15.20;69.50
15394;DHT22;7795;47.986;11.868;2023-06-01T04:35:19;15.30;70.10
15394;DHT22;7795;47.986;11.868;2023-06-01T04:37:45;15.30;69.40
15394;DHT22;7795;47.986;11.868;2023-06-01T04:40:12;15.40;69.50
15394;DHT22;7795;47.986;11.868;2023-06-01T04:42:41;15.50;69.60
15394;DHT22;7795;47.986;11.868;2023-06-01T04:45:07;15.50;69.70
15394;DHT22;7795;47.986;11.868;2023-06-01T04:47:36;15.60;69.90
15394;DHT22;7795;47.986;11.868;2023-06-01T04:50:06;15.70;70.10
15394;DHT22;7795;47.986;11.868;2023-06-01T04:52:34;15.80;70.10
15394;DHT22;7795;47.986;11.868;2023-06-01T04:55:00;15.90;70.00
15394;DHT22;7795;47.986;11.868;2023-06-01T04:57:26;16.10;70.30
15394;DHT22;7795;47.986;11.868;2023-06-01T04:59:52;16.20;70.30
15394;DHT22;7795;47.986;11.868;2023-06-01T05:02:22;16.40;70.30
15394;DHT22;7795;47.986;11.868;2023-06-01T05:04:50;16.60;70.20
15394;DHT22;7795;47.986;11.868;2023-06-01T05:07:16;16.80;70.20
15394;DHT22;7795;47.986;11.868;2023-06-01T05:09:42;17.00;70.00
15394;DHT22;7795;47.986;11.868;2023-06-01T05:12:08;17.20;69.90
15394;DHT22;7795;47.986;11.868;2023-06-01T05:14:33;17.40;69.60
15394;DHT22;7795;47.986;11.868;2023-06-01T05:16:59;17.60;69.40
15394;DHT22;7795;47.986;11.868;2023-06-01T05:19:25;17.80;69.10
15394;DHT22;7795;47.986;11.868;2023-06-01T05:21:52;18.00;68.90
15394;DHT22;7795;47.986;11.868;2023-06-01T05:24:18;18.20;68.70
15394;DHT22;7795;47.986;11.868;2023-06-01T05:26:44;18.50;68.40
15394;DHT22;7795;47.986;11.868;2023-06-01T05:29:11;18.70;67.90
15394;DHT22;7795;47.986;11.868;2023-06-01T05:31:37;18.90;67.60
15394;DHT22;7795;47.986;11.868;2023-06-01T05:34:02;19.20;67.40
15394;DHT22;7795;47.986;11.868;2023-06-01T05:36:28;19.40;67.00
15394;DHT22;7795;47.986;11.868;2023-06-01T05:38:55;19.70;66.80
15394;DHT22;7795;47.986;11.868;2023-06-01T05:41:21;19.90;66.30
15394;DHT22;7795;47.986;11.868;2023-06-01T05:43:47;20.10;66.10
15394;DHT22;7795;47.986;11.868;2023-06-01T05:46:13;20.40;65.80
15394;DHT22;7795;47.986;11.868;2023-06-01T05:48:38;20.60;65.40
15394;DHT22;7795;47.986;11.868;2023-06-01T05:51:04;20.80;64.80
15394;DHT22;7795;47.986;11.868;2023-06-01T05:53:30;21.10;64.50
15394;DHT22;7795;47.986;11.868;2023-06-01T05:55:57;21.30;63.60
15394;DHT22;7795;47.986;11.868;2023-06-01T05:58:23;21.50;62.90
15394;DHT22;7795;47.986;11.868;2023-06-01T06:00:49;21.60;62.60
15394;DHT22;7795;47.986;11.868;2023-06-01T06:03:15;21.80;62.30
15394;DHT22;7795;47.986;11.868;2023-06-01T06:05:40;21.90;61.70
15394;DHT22;7795;47.986;11.868;2023-06-01T06:08:06;22.10;61.20
15394;DHT22;7795;47.986;11.868;2023-06-01T06:10:32;22.20;60.90
15394;DHT22;7795;47.986;11.868;2023-06-01T06:12:59;22.30;60.60
15394;DHT22;7795;47.986;11.868;2023-06-01T06:15:25;22.40;60.50
15394;DHT22;7795;47.986;11.868;2023-06-01T06:17:52;22.50;60.20
15394;DHT22;7795;47.986;11.868;2023-06-01T06:20:17;22.50;59.90
15394;DHT22;7795;47.986;11.868;2023-06-01T06:22:49;22.60;59.60
15394;DHT22;7795;47.986;11.868;2023-06-01T06:25:15;22.70;59.40
15394;DHT22;7795;47.986;11.868;2023-06-01T06:27:40;22.70;59.20
15394;DHT22;7795;47.986;11.868;2023-06-01T06:30:08;22.80;59.10
15394;DHT22;7795;47.986;11.868;2023-06-01T06:32:35;22.80;58.70
15394;DHT22;7795;47.986;11.868;2023-06-01T06:35:00;22.90;58.80
15394;DHT22;7795;47.986;11.868;2023-06-01T06:37:27;22.90;58.60
15394;DHT22;7795;47.986;11.868;2023-06-01T06:39:53;22.90;58.50
15394;DHT22;7795;47.986;11.868;2023-06-01T06:42:19;23.00;58.60
15394;DHT22;7795;47.986;11.868;2023-06-01T06:44:45;23.00;58.40
15394;DHT22;7795;47.986;11.868;2023-06-01T06:47:12;23.00;58.20
15394;DHT22;7795;47.986;11.868;2023-06-01T06:49:44;23.10;58.00
15394;DHT22;7795;47.986;11.868;2023-06-01T06:52:10;23.10;57.80
15394;DHT22;7795;47.986;11.868;2023-06-01T06:54:36;23.20;57.80
15394;DHT22;7795;47.986;11.868;2023-06-01T06:57:04;23.20;57.60
15394;DHT22;7795;47.986;11.868;2023-06-01T06:59:30;23.20;57.60
15394;DHT22;7795;47.986;11.868;2023-06-01T07:01:56;23.20;57.40
15394;DHT22;7795;47.986;11.868;2023-06-01T07:04:23;23.30;57.50
15394;DHT22;7795;47.986;11.868;2023-06-01T07:06:49;23.20;57.40
15394;DHT22;7795;47.986;11.868;2023-06-01T07:09:16;23.20;57.50
15394;DHT22;7795;47.986;11.868;2023-06-01T07:11:42;23.20;58.20
15394;DHT22;7795;47.986;11.868;2023-06-01T07:14:11;23.20;57.60
15394;DHT22;7795;47.986;11.868;2023-06-01T07:16:37;23.20;57.70
15394;DHT22;7795;47.986;11.868;2023-06-01T07:19:03;23.20;57.80
15394;DHT22;7795;47.986;11.868;2023-06-01T07:21:30;23.20;57.80
15394;DHT22;7795;47.986;11.868;2023-06-01T07:23:56;23.20;57.60
15394;DHT22;7795;47.986;11.868;2023-06-01T07:26:22;23.30;57.60
15394;DHT22;7795;47.986;11.868;2023-06-01T07:28:52;23.20;57.60
15394;DHT22;7795;47.986;11.868;2023-06-01T07:31:20;23.20;57.70
15394;DHT22;7795;47.986;11.868;2023-06-01T07:33:47;23.20;57.60
15394;DHT22;7795;47.986;11.868;2023-06-01T07:36:12;23.20;57.60
15394;DHT22;7795;47.986;11.868;2023-06-01T07:38:41;23.20;57.50
15394;DHT22;7795;47.986;11.868;2023-06-01T07:41:08;23.20;57.40
15394;DHT22;7795;47.986;11.868;2023-06-01T07:43:36;23.20;57.60
15394;DHT22;7795;47.986;11.868;2023-06-01T07:46:01;23.20;57.60
15394;DHT22;7795;47.986;11.868;2023-06-01T07:48:27;23.20;57.60
15394;DHT22;7795;47.986;11.868;2023-06-01T07:50:53;23.20;57.60
15394;DHT22;7795;47.986;11.868;2023-06-01T07:53:20;23.20;58.20
15394;DHT22;7795;47.986;11.868;2023-06-01T07:55:47;23.20;57.60
15394;DHT22;7795;47.986;11.868;2023-06-01T07:58:15;23.20;57.50
15394;DHT22;7795;47.986;11.868;2023-06-01T08:00:41;23.20;57.60
15394;DHT22;7795;47.986;11.868;2023-06-01T08:03:07;23.30;57.70
15394;DHT22;7795;47.986;11.868;2023-06-01T08:05:34;23.30;57.80
15394;DHT22;7795;47.986;11.868;2023-06-01T08:08:01;23.30;57.50
15394;DHT22;7795;47.986;11.868;2023-06-01T08:10:27;23.30;57.40
15394;DHT22;7795;47.986;11.868;2023-06-01T08:12:54;23.30;57.30
15394;DHT22;7795;47.986;11.868;2023-06-01T08:15:22;23.40;57.40
15394;DHT22;7795;47.986;11.868;2023-06-01T08:17:49;23.40;57.50
15394;DHT22;7795;47.986;11.868;2023-06-01T08:20:16;23.40;57.40
15394;DHT22;7795;47.986;11.868;2023-06-01T08:22:47;23.40;57.40
15394;DHT22;7795;47.986;11.868;2023-06-01T08:25:13;23.50;57.30
15394;DHT22;7795;47.986;11.868;2023-06-01T08:27:40;23.50;57.00
15394;DHT22;7795;47.986;11.868;2023-06-01T08:30:09;23.60;56.90
15394;DHT22;7795;47.986;11.868;2023-06-01T08:32:35;23.60;56.90
15394;DHT22;7795;47.986;11.868;2023-06-01T08:35:01;23.60;56.90
15394;DHT22;7795;47.986;11.868;2023-06-01T08:37:27;23.70;56.90
15394;DHT22;7795;47.986;11.868;2023-06-01T08:39:52;23.70;57.00
15394;DHT22;7795;47.986;11.868;2023-06-01T08:42:23;23.80;56.90
15394;DHT22;7795;47.986;11.868;2023-06-01T08:44:53;23.80;56.90
15394;DHT22;7795;47.986;11.868;2023-06-01T08:47:22;23.90;56.70
15394;DHT22;7795;47.986;11.868;2023-06-01T08:49:50;23.90;56.80
15394;DHT22;7795;47.986;11.868;2023-06-01T08:52:19;24.00;56.50
15394;DHT22;7795;47.986;11.868;2023-06-01T08:54:48;24.00;56.20
15394;DHT22;7795;47.986;11.868;2023-06-01T08:57:15;24.10;56.20
15394;DHT22;7795;47.986;11.868;2023-06-01T08:59:41;24.10;56.00
15394;DHT22;7795;47.986;11.868;2023-06-01T09:02:08;24.20;55.90
15394;DHT22;7795;47.986;11.868;2023-06-01T09:04:36;24.20;56.00
15394;DHT22;7795;47.986;11.868;2023-06-01T09:07:07;24.20;55.90
15394;DHT22;7795;47.986;11.868;2023-06-01T09:09:33;24.30;55.80
15394;DHT22;7795;47.986;11.868;2023-06-01T09:12:20;24.30;55.70
15394;DHT22;7795;47.986;11.868;2023-06-01T09:14:46;24.40;55.60
15394;DHT22;7795;47.986;11.868;2023-06-01T09:17:13;24.40;55.70
15394;DHT22;7795;47.986;11.868;2023-06-01T09:19:44;24.50;55.60
15394;DHT22;7795;47.986;11.868;2023-06-01T09:22:10;24.60;55.10
15394;DHT22;7795;47.986;11.868;2023-06-01T09:24:37;24.70;55.30
15394;DHT22;7795;47.986;11.868;2023-06-01T09:27:03;24.70;55.10
15394;DHT22;7795;47.986;11.868;2023-06-01T09:29:29;24.80;54.50
15394;DHT22;7795;47.986;11.868;2023-06-01T09:31:55;24.80;53.90
15394;DHT22;7795;47.986;11.868;2023-06-01T09:34:21;24.90;53.80
15394;DHT22;7795;47.986;11.868;2023-06-01T09:36:50;24.90;53.40
15394;DHT22;7795;47.986;11.868;2023-06-01T09:39:17;25.00;53.80
15394;DHT22;7795;47.986;11.868;2023-06-01T09:41:49;25.00;53.10
15394;DHT22;7795;47.986;11.868;2023-06-01T09:44:23;25.00;52.90
15394;DHT22;7795;47.986;11.868;2023-06-01T09:46:50;25.10;53.00
15394;DHT22;7795;47.986;11.868;2023-06-01T09:49:21;25.10;53.30
15394;DHT22;7795;47.986;11.868;2023-06-01T09:51:49;25.20;53.40
15394;DHT22;7795;47.986;11.868;2023-06-01T09:54:28;25.20;53.00
15394;DHT22;7795;47.986;11.868;2023-06-01T09:56:54;25.30;52.30
15394;DHT22;7795;47.986;11.868;2023-06-01T09:59:21;25.40;52.80
15394;DHT22;7795;47.986;11.868;2023-06-01T10:01:50;25.40;52.80
15394;DHT22;7795;47.986;11.868;2023-06-01T10:04:20;25.50;52.60
15394;DHT22;7795;47.986;11.868;2023-06-01T10:06:50;25.60;52.30
15394;DHT22;7795;47.986;11.868;2023-06-01T10:09:20;25.60;52.50
15394;DHT22;7795;47.986;11.868;2023-06-01T10:11:47;25.60;51.80
15394;DHT22;7795;47.986;11.868;2023-06-01T10:14:14;25.60;51.80
15394;DHT22;7795;47.986;11.868;2023-06-01T10:16:41;25.70;51.80
15394;DHT22;7795;47.986;11.868;2023-06-01T10:19:07;25.70;51.00
15394;DHT22;7795;47.986;11.868;2023-06-01T10:21:33;25.70;50.90
15394;DHT22;7795;47.986;11.868;2023-06-01T10:24:00;25.80;51.10
15394;DHT22;7795;47.986;11.868;2023-06-01T10:26:27;25.80;50.80
15394;DHT22;7795;47.986;11.868;2023-06-01T10:28:55;25.90;50.70
15394;DHT22;7795;47.986;11.868;2023-06-01T10:31:32;25.90;50.20
15394;DHT22;7795;47.986;11.868;2023-06-01T10:33:58;25.90;49.80
15394;DHT22;7795;47.986;11.868;2023-06-01T10:36:24;25.90;50.20
15394;DHT22;7795;47.986;11.868;2023-06-01T10:39:24;26.00;50.00
15394;DHT22;7795;47.986;11.868;2023-06-01T10:41:50;26.00;49.10
15394;DHT22;7795;47.986;11.868;2023-06-01T10:44:44;26.10;49.70
15394;DHT22;7795;47.986;11.868;2023-06-01T10:47:43;26.10;48.70
15394;DHT22;7795;47.986;11.868;2023-06-01T10:50:09;26.20;48.70
15394;DHT22;7795;47.986;11.868;2023-06-01T10:52:36;26.20;49.40
15394;DHT22;7795;47.986;11.868;2023-06-01T10:58:22;26.20;48.80
15394;DHT22;7795;47.986;11.868;2023-06-01T11:00:48;26.30;48.20
15394;DHT22;7795;47.986;11.868;2023-06-01T11:03:15;26.30;48.90
15394;DHT22;7795;47.986;11.868;2023-06-01T11:05:45;26.40;48.70
15394;DHT22;7795;47.986;11.868;2023-06-01T11:08:51;26.40;48.20
15394;DHT22;7795;47.986;11.868;2023-06-01T11:11:17;26.50;47.60
15394;DHT22;7795;47.986;11.868;2023-06-01T11:14:09;26.50;48.20
15394;DHT22;7795;47.986;11.868;2023-06-01T11:16:36;26.60;47.80
15394;DHT22;7795;47.986;11.868;2023-06-01T11:19:04;26.60;47.70
15394;DHT22;7795;47.986;11.868;2023-06-01T11:21:33;26.70;47.90
15394;DHT22;7795;47.986;11.868;2023-06-01T11:24:04;26.70;48.30
15394;DHT22;7795;47.986;11.868;2023-06-01T11:26:32;26.70;48.10
15394;DHT22;7795;47.986;11.868;2023-06-01T11:29:11;26.80;48.30
15394;DHT22;7795;47.986;11.868;2023-06-01T11:31:40;26.90;48.10
15394;DHT22;7795;47.986;11.868;2023-06-01T11:34:08;26.90;47.80
15394;DHT22;7795;47.986;11.868;2023-06-01T11:36:43;27.00;47.70
15394;DHT22;7795;47.986;11.868;2023-06-01T11:39:17;27.00;47.00
15394;DHT22;7795;47.986;11.868;2023-06-01T11:41:43;27.10;46.70
15394;DHT22;7795;47.986;11.868;2023-06-01T11:44:12;27.10;46.90
15394;DHT22;7795;47.986;11.868;2023-06-01T11:46:49;27.10;47.00
15394;DHT22;7795;47.986;11.868;2023-06-01T11:49:16;27.20;46.80
15394;DHT22;7795;47.986;11.868;2023-06-01T11:51:42;27.20;47.50
15394;DHT22;7795;47.986;11.868;2023-06-01T11:54:08;27.20;47.20
15394;DHT22;7795;47.986;11.868;2023-06-01T11:56:35;27.30;47.30
15394;DHT22;7795;47.986;11.868;2023-06-01T11:59:03;27.30;47.70
15394;DHT22;7795;47.986;11.868;2023-06-01T12:01:42;27.40;47.50
15394;DHT22;7795;47.986;11.868;2023-06-01T12:04:12;27.50;47.10
15394;DHT22;7795;47.986;11.868;2023-06-01T12:06:38;27.50;46.60
15394;DHT22;7795;47.986;11.868;2023-06-01T12:09:04;27.50;47.10
15394;DHT22;7795;47.986;11.868;2023-06-01T12:11:32;27.60;47.70
15394;DHT22;7795;47.986;11.868;2023-06-01T12:13:58;27.70;47.50
15394;DHT22;7795;47.986;11.868;2023-06-01T12:19:16;27.80;46.80
15394;DHT22;7795;47.986;11.868;2023-06-01T12:21:47;27.90;45.80
15394;DHT22;7795;47.986;11.868;2023-06-01T12:24:13;27.90;46.10
15394;DHT22;7795;47.986;11.868;2023-06-01T12:26:39;27.90;45.80
15394;DHT22;7795;47.986;11.868;2023-06-01T12:29:06;28.00;45.50
15394;DHT22;7795;47.986;11.868;2023-06-01T12:31:32;28.00;45.20
15394;DHT22;7795;47.986;11.868;2023-06-01T12:33:58;28.00;45.00
15394;DHT22;7795;47.986;11.868;2023-06-01T12:36:32;28.00;44.60
15394;DHT22;7795;47.986;11.868;2023-06-01T12:38:59;28.10;44.00
15394;DHT22;7795;47.986;11.868;2023-06-01T12:41:26;28.10;45.00
15394;DHT22;7795;47.986;11.868;2023-06-01T12:43:53;28.10;44.40
15394;DHT22;7795;47.986;11.868;2023-06-01T12:46:19;28.10;44.30
15394;DHT22;7795;47.986;11.868;2023-06-01T12:48:45;28.10;44.00
15394;DHT22;7795;47.986;11.868;2023-06-01T12:51:12;28.10;43.80
15394;DHT22;7795;47.986;11.868;2023-06-01T12:53:40;28.10;43.80
15394;DHT22;7795;47.986;11.868;2023-06-01T12:56:08;28.20;43.40
15394;DHT22;7795;47.986;11.868;2023-06-01T12:58:35;28.10;43.30
15394;DHT22;7795;47.986;11.868;2023-06-01T13:01:01;28.20;43.60
15394;DHT22;7795;47.986;11.868;2023-06-01T13:03:28;28.20;43.80
15394;DHT22;7795;47.986;11.868;2023-06-01T13:05:55;28.20;43.30
15394;DHT22;7795;47.986;11.868;2023-06-01T13:08:21;28.30;43.10
15394;DHT22;7795;47.986;11.868;2023-06-01T13:10:56;28.30;43.00
15394;DHT22;7795;47.986;11.868;2023-06-01T13:13:22;28.30;42.30
15394;DHT22;7795;47.986;11.868;2023-06-01T13:15:49;28.30;42.60
15394;DHT22;7795;47.986;11.868;2023-06-01T13:18:15;28.30;42.30
15394;DHT22;7795;47.986;11.868;2023-06-01T13:20:41;28.40;42.40
15394;DHT22;7795;47.986;11.868;2023-06-01T13:23:08;28.40;42.60
15394;DHT22;7795;47.986;11.868;2023-06-01T13:25:36;28.40;42.50
15394;DHT22;7795;47.986;11.868;2023-06-01T13:28:04;28.40;42.30
15394;DHT22;7795;47.986;11.868;2023-06-01T13:30:31;28.50;41.90
15394;DHT22;7795;47.986;11.868;2023-06-01T13:33:02;28.50;42.00
15394;DHT22;7795;47.986;11.868;2023-06-01T13:35:28;28.50;42.10
15394;DHT22;7795;47.986;11.868;2023-06-01T13:37:55;28.50;42.00
15394;DHT22;7795;47.986;11.868;2023-06-01T13:40:21;28.50;42.20
15394;DHT22;7795;47.986;11.868;2023-06-01T13:43:08;28.60;42.50
15394;DHT22;7795;47.986;11.868;2023-06-01T13:45:35;28.70;42.50
15394;DHT22;7795;47.986;11.868;2023-06-01T13:48:02;28.70;42.50
15394;DHT22;7795;47.986;11.868;2023-06-01T13:50:28;28.80;42.20
15394;DHT22;7795;47.986;11.868;2023-06-01T13:52:56;28.80;42.20
15394;DHT22;7795;47.986;11.868;2023-06-01T13:55:25;28.80;41.90
15394;DHT22;7795;47.986;11.868;2023-06-01T13:57:56;28.90;42.00
15394;DHT22;7795;47.986;11.868;2023-06-01T14:03:14;28.90;42.10
15394;DHT22;7795;47.986;11.868;2023-06-01T14:05:41;28.90;42.00
15394;DHT22;7795;47.986;11.868;2023-06-01T14:08:07;28.90;41.60
15394;DHT22;7795;47.986;11.868;2023-06-01T14:10:34;29.00;41.50
15394;DHT22;7795;47.986;11.868;2023-06-01T14:13:00;29.00;41.50
15394;DHT22;7795;47.986;11.868;2023-06-01T14:15:28;29.00;41.50
15394;DHT22;7795;47.986;11.868;2023-06-01T14:17:54;29.00;41.90
15394;DHT22;7795;47.986;11.868;2023-06-01T14:20:23;29.00;41.80
15394;DHT22;7795;47.986;11.868;2023-06-01T14:22:49;29.00;41.40
15394;DHT22;7795;47.986;11.868;2023-06-01T14:25:16;29.10;42.20
15394;DHT22;7795;47.986;11.868;2023-06-01T14:27:42;29.10;42.10
15394;DHT22;7795;47.986;11.868;2023-06-01T14:30:09;29.10;42.30
15394;DHT22;7795;47.986;11.868;2023-06-01T14:32:36;29.10;42.40
15394;DHT22;7795;47.986;11.868;2023-06-01T14:35:04;29.10;42.30
15394;DHT22;7795;47.986;11.868;2023-06-01T14:37:30;29.10;42.40
15394;DHT22;7795;47.986;11.868;2023-06-01T14:39:57;29.20;42.40
15394;DHT22;7795;47.986;11.868;2023-06-01T14:42:23;29.10;41.90
15394;DHT22;7795;47.986;11.868;2023-06-01T14:44:50;29.10;41.70
15394;DHT22;7795;47.986;11.868;2023-06-01T14:47:17;29.10;41.60
15394;DHT22;7795;47.986;11.868;2023-06-01T14:49:45;29.10;41.10
15394;DHT22;7795;47.986;11.868;2023-06-01T14:52:11;29.10;40.70
15394;DHT22;7795;47.986;11.868;2023-06-01T14:54:37;29.10;40.70
15394;DHT22;7795;47.986;11.868;2023-06-01T14:57:06;29.10;41.10
15394;DHT22;7795;47.986;11.868;2023-06-01T14:59:36;29.00;40.30
15394;DHT22;7795;47.986;11.868;2023-06-01T15:02:02;29.00;40.70
15394;DHT22;7795;47.986;11.868;2023-06-01T15:04:29;29.00;40.70
15394;DHT22;7795;47.986;11.868;2023-06-01T15:06:56;29.00;40.60
15394;DHT22;7795;47.986;11.868;2023-06-01T15:09:23;29.00;40.80
15394;DHT22;7795;47.986;11.868;2023-06-01T15:11:49;29.00;40.80
15394;DHT22;7795;47.986;11.868;2023-06-01T15:14:16;29.00;40.70
15394;DHT22;7795;47.986;11.868;2023-06-01T15:16:42;29.00;40.90
15394;DHT22;7795;47.986;11.868;2023-06-01T15:19:09;29.00;41.30
15394;DHT22;7795;47.986;11.868;2023-06-01T15:21:38;29.00;41.30
15394;DHT22;7795;47.986;11.868;2023-06-01T15:24:06;29.00;41.10
15394;DHT22;7795;47.986;11.868;2023-06-01T15:26:32;29.00;41.00
15394;DHT22;7795;47.986;11.868;2023-06-01T15:28:58;29.00;40.70
15394;DHT22;7795;47.986;11.868;2023-06-01T15:31:24;29.00;40.70
15394;DHT22;7795;47.986;11.868;2023-06-01T15:33:51;29.00;40.70
15394;DHT22;7795;47.986;11.868;2023-06-01T15:36:17;28.90;40.30
15394;DHT22;7795;47.986;11.868;2023-06-01T15:38:46;28.90;40.30
15394;DHT22;7795;47.986;11.868;2023-06-01T15:41:21;28.90;40.10
15394;DHT22;7795;47.986;11.868;2023-06-01T15:43:51;28.90;40.40
15394;DHT22;7795;47.986;11.868;2023-06-01T15:46:18;28.90;39.90
15394;DHT22;7795;47.986;11.868;2023-06-01T15:48:45;28.90;40.00
15394;DHT22;7795;47.986;11.868;2023-06-01T15:51:14;28.90;40.00